Centerville, Kansas
Current Conditions -  °F | °C
As of 7:53 PM on Saturday 25 Oct 2014 (Local Time) from KIXD Reporting Station
Clear Clear  
Wind Chill: 69°   Ceiling: Unl
Heat Index: 69°   Visibility: 10mi
Dew Point: 57°   Wind: 6mph
Humidity: 65%   Direction: 90°E
Pressure: 30.02"   Gusts: NA
Location:  38.22°N, 95.01°W
Report Text: KIXD 260053Z 09005KT 10SM CLR 21/14 A3002 RMK AO2 SLPNO T02060139
Loading
Personal Weather Stations






























Interactive Weather Map
Tropical Storm Tracking
New forecast layout! Learn more

10-Day Weather Forecast

Advertisements
Track Severe Weather on mobile